createdAt,value
2018-08-12T00:00:30.730Z,3.33
2018-08-12T00:03:00.559Z,3.70
2018-08-12T00:05:30.279Z,3.60
2018-08-12T00:07:59.911Z,3.60
2018-08-12T00:10:29.580Z,3.60
2018-08-12T00:12:59.190Z,3.87
2018-08-12T00:15:28.798Z,3.37
2018-08-12T00:17:58.427Z,3.40
2018-08-12T00:20:28.112Z,3.50
2018-08-12T00:22:57.816Z,3.40
2018-08-12T00:25:27.382Z,3.33
2018-08-12T00:27:57.027Z,3.33
2018-08-12T00:30:26.791Z,3.40
2018-08-12T00:32:56.321Z,3.57
2018-08-12T00:35:26.003Z,3.10
2018-08-12T00:37:55.683Z,3.20
2018-08-12T00:40:25.288Z,3.37
2018-08-12T00:42:54.911Z,3.57
2018-08-12T00:45:24.451Z,3.53
2018-08-12T00:47:54.046Z,3.80
2018-08-12T00:50:23.576Z,3.60
2018-08-12T00:52:53.298Z,3.83
2018-08-12T00:55:22.947Z,3.63
2018-08-12T00:57:52.494Z,3.70
2018-08-12T01:00:23.292Z,3.43
2018-08-12T01:02:53.063Z,3.93
2018-08-12T01:05:22.616Z,4.00
2018-08-12T01:07:52.229Z,4.20
2018-08-12T01:10:21.865Z,4.57
2018-08-12T01:12:51.376Z,4.77
2018-08-12T01:15:21.971Z,4.37
2018-08-12T01:17:51.525Z,4.50
2018-08-12T01:20:25.996Z,5.10
2018-08-12T01:22:55.620Z,4.70
2018-08-12T01:25:25.224Z,5.03
2018-08-12T01:27:54.913Z,4.67
2018-08-12T01:30:24.619Z,4.50
2018-08-12T01:32:54.175Z,4.80
2018-08-12T01:35:23.734Z,4.70
2018-08-12T01:37:53.277Z,4.57
2018-08-12T01:40:22.895Z,4.50
2018-08-12T01:42:52.491Z,4.67
2018-08-12T01:45:22.235Z,5.13
2018-08-12T01:47:51.826Z,5.30
2018-08-12T01:50:21.439Z,5.33
2018-08-12T01:52:50.978Z,5.03
2018-08-12T01:55:20.502Z,5.50
2018-08-12T01:57:50.173Z,5.53
2018-08-12T02:00:21.856Z,5.37
2018-08-12T02:02:51.546Z,5.30
2018-08-12T02:05:21.187Z,4.77
2018-08-12T02:07:50.835Z,4.20
2018-08-12T02:10:20.466Z,4.47
2018-08-12T02:12:50.080Z,4.27
2018-08-12T02:15:19.590Z,3.83
2018-08-12T02:17:49.202Z,4.47
2018-08-12T02:20:18.835Z,4.10
2018-08-12T02:22:48.449Z,4.53
2018-08-12T02:25:18.074Z,4.37
2018-08-12T02:27:47.627Z,5.17
2018-08-12T02:30:17.148Z,4.63
2018-08-12T02:32:46.743Z,5.00
2018-08-12T02:35:16.352Z,4.63
2018-08-12T02:37:45.949Z,4.30
2018-08-12T02:40:15.496Z,4.57
2018-08-12T02:42:45.079Z,4.30
2018-08-12T02:45:16.164Z,4.27
2018-08-12T02:47:45.761Z,3.70
2018-08-12T02:50:15.383Z,4.07
2018-08-12T02:52:44.890Z,4.20
2018-08-12T02:55:14.440Z,4.00
2018-08-12T02:57:43.958Z,4.00
2018-08-12T03:00:14.081Z,4.00
2018-08-12T03:02:43.588Z,3.97
2018-08-12T03:05:13.165Z,4.37
2018-08-12T03:07:42.739Z,4.03
2018-08-12T03:10:12.255Z,3.97
2018-08-12T03:12:41.831Z,3.83
2018-08-12T03:15:11.832Z,3.70
2018-08-12T03:17:41.367Z,3.60
2018-08-12T03:20:12.222Z,5.77
2018-08-12T03:22:41.796Z,5.43
2018-08-12T03:25:12.017Z,3.90
2018-08-12T03:27:41.570Z,3.80
2018-08-12T03:30:11.916Z,3.67
2018-08-12T03:32:41.675Z,3.37
2018-08-12T03:35:11.348Z,3.57
2018-08-12T03:37:40.921Z,3.60
2018-08-12T03:40:12.299Z,5.20
2018-08-12T03:42:42.124Z,3.83
2018-08-12T03:45:11.691Z,3.60
2018-08-12T03:47:41.327Z,3.50
2018-08-12T03:50:11.806Z,3.70
2018-08-12T03:52:41.400Z,3.40
2018-08-12T03:55:11.060Z,3.63
2018-08-12T03:57:40.639Z,3.90
2018-08-12T04:00:15.859Z,3.57
2018-08-12T04:02:46.386Z,3.57
2018-08-12T04:05:16.241Z,3.67
2018-08-12T04:07:45.910Z,3.70
2018-08-12T04:10:15.590Z,3.57
2018-08-12T04:12:45.179Z,3.53
2018-08-12T04:15:14.792Z,3.60
2018-08-12T04:17:44.351Z,3.50
2018-08-12T04:20:13.940Z,3.70
2018-08-12T04:22:43.565Z,3.70
2018-08-12T04:25:13.155Z,3.43
2018-08-12T04:27:42.647Z,4.13
2018-08-12T04:30:12.338Z,3.90
2018-08-12T04:32:41.915Z,3.77
2018-08-12T04:35:11.537Z,3.93
2018-08-12T04:37:41.144Z,3.37
2018-08-12T04:40:10.727Z,3.70
2018-08-12T04:42:40.296Z,4.00
2018-08-12T04:45:09.940Z,3.73
2018-08-12T04:47:39.691Z,3.90
2018-08-12T04:50:09.467Z,3.57
2018-08-12T04:52:39.016Z,4.30
2018-08-12T04:55:08.878Z,4.20
2018-08-12T04:57:38.699Z,4.27
2018-08-12T05:00:09.167Z,3.60
2018-08-12T05:02:39.041Z,4.00
2018-08-12T05:05:09.003Z,3.60
2018-08-12T05:07:38.594Z,4.50
2018-08-12T05:10:08.726Z,3.43
2018-08-12T05:12:38.309Z,3.60
2018-08-12T05:15:09.364Z,3.60
2018-08-12T05:17:39.146Z,3.80
2018-08-12T05:20:09.402Z,3.70
2018-08-12T05:22:39.287Z,3.63
2018-08-12T05:25:08.923Z,3.77
2018-08-12T05:27:38.511Z,3.80
2018-08-12T05:30:09.457Z,3.10
2018-08-12T05:32:39.719Z,4.03
2018-08-12T05:35:11.250Z,3.53
2018-08-12T05:37:40.923Z,3.50
2018-08-12T05:40:11.833Z,3.80
2018-08-12T05:42:41.618Z,3.40
2018-08-12T05:45:11.287Z,3.40
2018-08-12T05:47:41.134Z,3.63
2018-08-12T05:50:11.305Z,4.00
2018-08-12T05:52:40.864Z,3.40
2018-08-12T05:55:10.546Z,3.60
2018-08-12T05:57:40.179Z,3.80
2018-08-12T06:00:12.019Z,3.63
2018-08-12T06:02:41.731Z,3.50
2018-08-12T06:05:11.345Z,3.90
2018-08-12T06:07:41.038Z,3.53
2018-08-12T06:10:11.966Z,3.57
2018-08-12T06:12:41.604Z,3.30
2018-08-12T06:15:11.902Z,3.20
2018-08-12T06:17:41.491Z,3.30
2018-08-12T06:20:11.991Z,3.27
2018-08-12T06:22:41.540Z,3.80
2018-08-12T06:25:12.157Z,3.70
2018-08-12T06:27:41.896Z,3.73
2018-08-12T06:30:13.604Z,3.67
2018-08-12T06:32:43.201Z,3.30
2018-08-12T06:35:13.375Z,3.30
2018-08-12T06:37:42.922Z,3.43
2018-08-12T06:40:13.669Z,3.47
2018-08-12T06:42:44.571Z,3.30
2018-08-12T06:45:15.723Z,3.50
2018-08-12T06:47:46.440Z,3.30
2018-08-12T06:50:16.071Z,3.20
2018-08-12T06:52:45.831Z,3.30
2018-08-12T06:55:15.439Z,3.30
2018-08-12T06:57:45.068Z,3.33
2018-08-12T07:00:16.800Z,3.70
2018-08-12T07:02:46.452Z,3.50
2018-08-12T07:05:16.027Z,3.63
2018-08-12T07:07:45.593Z,3.50
2018-08-12T07:10:15.915Z,3.70
2018-08-12T07:12:45.623Z,3.90
2018-08-12T07:15:17.622Z,3.43
2018-08-12T07:17:47.763Z,3.57
2018-08-12T07:20:17.269Z,3.57
2018-08-12T07:22:46.892Z,3.20
2018-08-12T07:25:16.527Z,3.57
2018-08-12T07:27:46.192Z,3.33
2018-08-12T07:30:16.693Z,3.47
2018-08-12T07:32:46.289Z,3.60
2018-08-12T07:35:15.942Z,3.63
2018-08-12T07:37:45.584Z,3.90
2018-08-12T07:40:17.403Z,3.27
2018-08-12T07:42:47.991Z,3.50
2018-08-12T07:45:17.700Z,3.80
2018-08-12T07:47:47.256Z,3.80
2018-08-12T07:50:16.802Z,3.23
2018-08-12T07:52:46.567Z,4.00
2018-08-12T07:55:16.248Z,3.80
2018-08-12T07:57:45.836Z,3.20
2018-08-12T08:00:17.783Z,3.90
2018-08-12T08:02:47.759Z,3.33
2018-08-12T08:05:17.382Z,3.27
2018-08-12T08:07:46.963Z,3.03
2018-08-12T08:10:17.675Z,3.17
2018-08-12T08:12:47.634Z,2.70
2018-08-12T08:15:20.072Z,2.70
2018-08-12T08:17:49.870Z,2.73
2018-08-12T08:20:19.578Z,3.33
2018-08-12T08:22:49.174Z,3.10
2018-08-12T08:25:19.750Z,2.87
2018-08-12T08:27:49.343Z,2.90
2018-08-12T08:30:18.865Z,3.00
2018-08-12T08:32:48.506Z,2.77
2018-08-12T08:35:18.092Z,3.30
2018-08-12T08:37:47.741Z,3.00
2018-08-12T08:40:18.066Z,3.13
2018-08-12T08:42:47.704Z,3.13
2018-08-12T08:45:19.772Z,3.10
2018-08-12T08:47:50.577Z,2.80
2018-08-12T08:50:21.114Z,3.00
2018-08-12T08:52:51.104Z,3.30
2018-08-12T08:55:20.761Z,3.20
2018-08-12T08:57:50.377Z,3.10
2018-08-12T09:00:21.137Z,3.37
2018-08-12T09:02:52.196Z,3.07
2018-08-12T09:05:22.198Z,3.07
2018-08-12T09:07:52.378Z,2.80
2018-08-12T09:10:22.164Z,2.83
2018-08-12T09:12:51.811Z,2.90
2018-08-12T09:15:21.599Z,2.47
2018-08-12T09:17:51.393Z,2.80
2018-08-12T09:20:21.744Z,2.50
2018-08-12T09:22:51.368Z,2.70
2018-08-12T09:25:20.980Z,2.60
2018-08-12T09:27:50.558Z,2.63
2018-08-12T09:30:21.433Z,2.80
2018-08-12T09:32:51.076Z,2.70
2018-08-12T09:35:20.847Z,2.80
2018-08-12T09:37:50.411Z,3.03
2018-08-12T09:40:20.133Z,2.87
2018-08-12T09:42:49.723Z,2.73
2018-08-12T09:45:20.738Z,2.50
2018-08-12T09:47:50.454Z,2.80
2018-08-12T09:50:20.824Z,2.63
2018-08-12T09:52:51.623Z,2.80
2018-08-12T09:55:21.292Z,2.17
2018-08-12T09:57:50.933Z,2.40
2018-08-12T10:00:25.789Z,2.60
2018-08-12T10:02:56.304Z,2.70
2018-08-12T10:05:25.991Z,2.80
2018-08-12T10:07:55.522Z,2.60
2018-08-12T10:10:25.282Z,2.60
2018-08-12T10:12:54.834Z,2.73
2018-08-12T10:15:24.585Z,2.70
2018-08-12T10:17:56.851Z,2.70
2018-08-12T10:20:26.554Z,2.77
2018-08-12T10:22:56.279Z,2.40
2018-08-12T10:25:25.870Z,2.23
2018-08-12T10:27:55.442Z,2.67
2018-08-12T10:30:25.023Z,2.50
2018-08-12T10:32:54.669Z,2.57
2018-08-12T10:35:24.246Z,2.47
2018-08-12T10:37:53.839Z,2.30
2018-08-12T10:40:23.415Z,2.50
2018-08-12T10:42:52.959Z,2.30
2018-08-12T10:45:22.562Z,2.33
2018-08-12T10:47:52.123Z,2.30
2018-08-12T10:50:21.663Z,2.60
2018-08-12T10:52:51.437Z,2.40
2018-08-12T10:55:23.109Z,2.40
2018-08-12T10:57:52.784Z,2.43
2018-08-12T11:00:31.831Z,2.80
2018-08-12T11:03:01.691Z,2.63
2018-08-12T11:05:31.351Z,2.67
2018-08-12T11:08:01.048Z,2.63
2018-08-12T11:10:30.970Z,2.57
2018-08-12T11:13:00.602Z,2.70
2018-08-12T11:15:30.184Z,2.50
2018-08-12T11:17:59.763Z,2.60
2018-08-12T11:20:29.332Z,2.60
2018-08-12T11:22:58.998Z,2.70
2018-08-12T11:25:28.655Z,2.30
2018-08-12T11:27:58.218Z,2.80
2018-08-12T11:30:27.819Z,2.70
2018-08-12T11:32:57.467Z,2.70
2018-08-12T11:35:27.046Z,3.07
2018-08-12T11:37:56.753Z,2.47
2018-08-12T11:40:26.329Z,2.77
2018-08-12T11:42:55.940Z,2.73
2018-08-12T11:45:25.535Z,2.37
2018-08-12T11:47:55.174Z,2.30
2018-08-12T11:50:24.924Z,2.70
2018-08-12T11:52:54.551Z,2.73
2018-08-12T11:55:24.168Z,2.50
2018-08-12T11:57:53.834Z,2.70
2018-08-12T12:00:23.426Z,2.50
2018-08-12T12:02:53.420Z,2.53
2018-08-12T12:05:22.971Z,2.83
2018-08-12T12:07:52.640Z,2.50
2018-08-12T12:10:23.198Z,2.60
2018-08-12T12:12:53.513Z,2.97
2018-08-12T12:15:23.116Z,3.03
2018-08-12T12:17:52.803Z,2.63
2018-08-12T12:20:22.376Z,2.50
2018-08-12T12:22:52.082Z,2.30
2018-08-12T12:25:22.155Z,2.70
2018-08-12T12:27:51.828Z,2.40
2018-08-12T12:30:22.703Z,2.80
2018-08-12T12:32:53.526Z,2.77
2018-08-12T12:35:23.140Z,2.63
2018-08-12T12:37:52.888Z,2.83
2018-08-12T12:40:22.500Z,2.63
2018-08-12T12:42:52.150Z,2.97
2018-08-12T12:45:21.675Z,2.50
2018-08-12T12:47:51.332Z,2.40
2018-08-12T12:50:22.786Z,3.00
2018-08-12T12:52:53.399Z,2.63
2018-08-12T12:55:24.159Z,2.60
2018-08-12T12:57:53.755Z,2.50
2018-08-12T13:00:23.387Z,2.60
2018-08-12T13:02:53.015Z,2.70
2018-08-12T13:05:23.236Z,2.63
2018-08-12T13:07:52.901Z,2.70
2018-08-12T13:10:22.556Z,2.60
2018-08-12T13:12:52.255Z,2.60
2018-08-12T13:15:21.766Z,2.83
2018-08-12T13:17:51.480Z,3.03
2018-08-12T13:20:21.781Z,2.70
2018-08-12T13:22:51.551Z,2.40
2018-08-12T13:25:22.643Z,2.60
2018-08-12T13:27:52.359Z,2.53
2018-08-12T13:30:22.563Z,2.77
2018-08-12T13:32:52.127Z,2.67
2018-08-12T13:35:21.759Z,2.67
2018-08-12T13:37:51.311Z,2.70
2018-08-12T13:40:21.027Z,2.37
2018-08-12T13:42:50.650Z,3.07
2018-08-12T13:45:20.412Z,3.00
2018-08-12T13:47:50.043Z,2.93
2018-08-12T13:50:22.398Z,2.60
2018-08-12T13:52:52.571Z,2.70
2018-08-12T13:55:22.919Z,2.70
2018-08-12T13:57:53.157Z,2.50
2018-08-12T14:00:25.820Z,2.67
2018-08-12T14:02:55.383Z,2.87
2018-08-12T14:05:25.015Z,2.87
2018-08-12T14:07:54.595Z,2.50
2018-08-12T14:10:24.339Z,2.67
2018-08-12T14:12:53.967Z,2.70
2018-08-12T14:15:23.571Z,2.80
2018-08-12T14:17:53.240Z,2.53
2018-08-12T14:20:22.852Z,2.80
2018-08-12T14:22:52.402Z,2.80
2018-08-12T14:25:21.999Z,2.80
2018-08-12T14:27:51.683Z,2.37
2018-08-12T14:30:22.316Z,2.83
2018-08-12T14:32:52.153Z,2.50
2018-08-12T14:35:21.764Z,2.67
2018-08-12T14:37:51.315Z,2.60
2018-08-12T14:40:20.939Z,2.93
2018-08-12T14:42:50.501Z,2.67
2018-08-12T14:45:20.095Z,2.80
2018-08-12T14:47:49.661Z,2.90
2018-08-12T14:50:20.536Z,2.50
2018-08-12T14:52:50.194Z,2.63
2018-08-12T14:55:20.628Z,2.60
2018-08-12T14:57:50.220Z,2.47
2018-08-12T15:00:20.975Z,2.90
2018-08-12T15:02:51.599Z,2.77
2018-08-12T15:05:21.411Z,2.97
2018-08-12T15:07:51.104Z,3.03
2018-08-12T15:10:20.832Z,2.57
2018-08-12T15:12:50.414Z,2.63
2018-08-12T15:15:20.194Z,2.60
2018-08-12T15:17:49.764Z,2.33
2018-08-12T15:20:19.302Z,2.70
2018-08-12T15:22:49.000Z,3.77
2018-08-12T15:25:20.083Z,2.80
2018-08-12T15:27:50.003Z,2.67
2018-08-12T15:30:19.538Z,2.60
2018-08-12T15:32:49.147Z,2.60
2018-08-12T15:35:18.647Z,3.00
2018-08-12T15:37:48.240Z,2.60
2018-08-12T15:40:17.867Z,2.83
2018-08-12T15:42:47.415Z,2.70
2018-08-12T15:45:18.026Z,2.70
2018-08-12T15:47:48.137Z,2.70
2018-08-12T15:50:17.711Z,2.60
2018-08-12T15:52:47.825Z,3.13
2018-08-12T15:55:17.407Z,2.50
2018-08-12T15:57:47.001Z,2.60
2018-08-12T16:00:18.815Z,2.60
2018-08-12T16:02:48.495Z,2.83
2018-08-12T16:05:18.086Z,2.60
2018-08-12T16:07:48.583Z,2.67
2018-08-12T16:10:20.433Z,2.63
2018-08-12T16:12:50.958Z,2.83
2018-08-12T16:15:20.735Z,2.83
2018-08-12T16:17:50.353Z,2.73
2018-08-12T16:20:19.999Z,2.50
2018-08-12T16:22:49.644Z,2.47
2018-08-12T16:25:20.544Z,2.40
2018-08-12T16:27:50.061Z,2.60
2018-08-12T16:30:20.085Z,2.50
2018-08-12T16:32:49.687Z,2.43
2018-08-12T16:35:19.490Z,2.90
2018-08-12T16:37:49.430Z,2.90
2018-08-12T16:40:20.287Z,2.60
2018-08-12T16:42:50.203Z,2.73
2018-08-12T16:45:20.273Z,2.83
2018-08-12T16:47:49.870Z,2.50
2018-08-12T16:50:19.482Z,2.50
2018-08-12T16:52:49.056Z,2.70
2018-08-12T16:55:19.196Z,2.63
2018-08-12T16:57:48.815Z,2.83
2018-08-12T17:00:21.240Z,2.50
2018-08-12T17:02:50.924Z,2.80
2018-08-12T17:05:21.674Z,2.53
2018-08-12T17:07:51.597Z,2.47
2018-08-12T17:10:21.693Z,3.00
2018-08-12T17:12:51.245Z,2.80
2018-08-12T17:15:22.022Z,2.60
2018-08-12T17:17:51.732Z,2.90
2018-08-12T17:20:22.167Z,2.67
2018-08-12T17:22:51.787Z,2.70
2018-08-12T17:25:21.354Z,2.70
2018-08-12T17:27:50.921Z,3.10
2018-08-12T17:30:20.608Z,2.90
2018-08-12T17:32:50.108Z,3.27
2018-08-12T17:35:19.750Z,3.13
2018-08-12T17:37:49.387Z,2.83
2018-08-12T17:40:19.004Z,3.23
2018-08-12T17:42:48.583Z,3.43
2018-08-12T17:45:18.308Z,3.20
2018-08-12T17:47:47.903Z,3.27
2018-08-12T17:50:18.055Z,3.70
2018-08-12T17:52:47.559Z,3.60
2018-08-12T17:55:17.228Z,3.87
2018-08-12T17:57:46.840Z,3.87
2018-08-12T18:00:17.100Z,3.90
2018-08-12T18:02:46.662Z,3.93
2018-08-12T18:05:16.290Z,4.00
2018-08-12T18:07:45.799Z,3.90
2018-08-12T18:10:15.472Z,3.70
2018-08-12T18:12:45.013Z,3.80
2018-08-12T18:15:14.575Z,3.80
2018-08-12T18:17:44.180Z,3.60
2018-08-12T18:20:13.800Z,4.00
2018-08-12T18:22:43.684Z,3.80
2018-08-12T18:25:13.279Z,3.60
2018-08-12T18:27:42.978Z,3.90
2018-08-12T18:30:14.183Z,3.40
2018-08-12T18:32:43.987Z,3.73
2018-08-12T18:35:14.069Z,3.87
2018-08-12T18:37:43.686Z,3.80
2018-08-12T18:40:13.719Z,4.00
2018-08-12T18:42:43.371Z,4.00
2018-08-12T18:45:12.907Z,4.00
2018-08-12T18:47:42.555Z,4.10
2018-08-12T18:50:12.703Z,4.00
2018-08-12T18:52:42.563Z,4.10
2018-08-12T18:55:13.014Z,4.13
2018-08-12T18:57:42.680Z,4.10
2018-08-12T19:00:14.061Z,4.20
2018-08-12T19:02:43.695Z,4.30
2018-08-12T19:05:13.764Z,4.60
2018-08-12T19:07:43.364Z,4.13
2018-08-12T19:10:12.984Z,4.17
2018-08-12T19:12:43.368Z,4.37
2018-08-12T19:15:13.435Z,3.97
2018-08-12T19:17:43.092Z,3.97
2018-08-12T19:20:12.870Z,4.40
2018-08-12T19:22:42.459Z,4.27
2018-08-12T19:25:12.051Z,3.90
2018-08-12T19:27:41.735Z,4.20
2018-08-12T19:30:13.346Z,4.30
2018-08-12T19:32:42.936Z,4.27
2018-08-12T19:35:13.071Z,4.23
2018-08-12T19:37:42.679Z,4.50
2018-08-12T19:40:12.318Z,4.60
2018-08-12T19:42:41.825Z,4.83
2018-08-12T19:45:12.190Z,4.17
2018-08-12T19:47:41.856Z,3.97
2018-08-12T19:50:11.507Z,4.10
2018-08-12T19:52:41.071Z,4.47
2018-08-12T19:55:10.712Z,4.57
2018-08-12T19:57:40.290Z,4.47
2018-08-12T20:00:12.290Z,4.40
2018-08-12T20:02:42.352Z,4.67
2018-08-12T20:05:12.018Z,4.33
2018-08-12T20:07:41.673Z,3.93
2018-08-12T20:10:12.104Z,4.73
2018-08-12T20:12:41.681Z,4.60
2018-08-12T20:15:12.187Z,4.20
2018-08-12T20:17:41.937Z,4.17
2018-08-12T20:20:12.843Z,4.43
2018-08-12T20:22:42.515Z,4.50
2018-08-12T20:25:12.034Z,4.10
2018-08-12T20:27:41.653Z,4.40
2018-08-12T20:30:12.216Z,4.07
2018-08-12T20:32:42.178Z,3.70
2018-08-12T20:35:11.780Z,3.83
2018-08-12T20:37:41.344Z,4.00
2018-08-12T20:40:11.035Z,3.90
2018-08-12T20:42:40.592Z,3.83
2018-08-12T20:45:10.230Z,3.93
2018-08-12T20:47:39.867Z,3.83
2018-08-12T20:50:09.682Z,4.00
2018-08-12T20:52:39.294Z,3.53
2018-08-12T20:55:09.398Z,3.63
2018-08-12T20:57:39.060Z,3.47
2018-08-12T21:00:09.751Z,3.33
2018-08-12T21:02:39.539Z,3.70
2018-08-12T21:05:09.160Z,3.73
2018-08-12T21:07:40.671Z,3.63
2018-08-12T21:10:10.735Z,3.43
2018-08-12T21:12:40.466Z,3.53
2018-08-12T21:15:10.167Z,3.80
2018-08-12T21:17:39.748Z,4.10
2018-08-12T21:20:09.331Z,3.63
2018-08-12T21:22:39.343Z,3.57
2018-08-12T21:25:09.220Z,3.87
2018-08-12T21:27:38.967Z,3.70
2018-08-12T21:30:08.579Z,4.00
2018-08-12T21:32:38.146Z,3.63
2018-08-12T21:35:07.667Z,3.60
2018-08-12T21:37:37.280Z,3.60
2018-08-12T21:40:06.855Z,3.37
2018-08-12T21:42:36.420Z,3.83
2018-08-12T21:45:06.446Z,3.70
2018-08-12T21:47:36.149Z,3.60
2018-08-12T21:50:06.116Z,3.90
2018-08-12T21:52:35.703Z,3.40
2018-08-12T21:55:05.379Z,3.53
2018-08-12T21:57:34.936Z,3.77
2018-08-12T22:00:06.956Z,3.93
2018-08-12T22:02:36.591Z,3.60
2018-08-12T22:05:07.065Z,3.60
2018-08-12T22:07:36.592Z,3.97
2018-08-12T22:10:06.608Z,4.00
2018-08-12T22:12:36.328Z,3.80
2018-08-12T22:15:06.829Z,4.17
2018-08-12T22:17:36.596Z,4.10
2018-08-12T22:20:06.563Z,4.17
2018-08-12T22:22:36.147Z,4.30
2018-08-12T22:25:05.904Z,4.43
2018-08-12T22:27:35.652Z,4.20
2018-08-12T22:30:05.596Z,4.30
2018-08-12T22:32:35.197Z,4.00
2018-08-12T22:35:05.123Z,4.20
2018-08-12T22:37:34.789Z,4.77
2018-08-12T22:40:05.201Z,4.27
2018-08-12T22:42:34.817Z,4.90
2018-08-12T22:45:05.211Z,4.37
2018-08-12T22:47:34.774Z,3.90
2018-08-12T22:50:04.987Z,4.70
2018-08-12T22:52:34.621Z,4.40
2018-08-12T22:55:04.492Z,3.97
2018-08-12T22:57:34.046Z,4.57
2018-08-12T23:00:03.796Z,4.63
2018-08-12T23:02:33.503Z,4.97
2018-08-12T23:05:03.100Z,4.60
2018-08-12T23:07:32.708Z,4.40
2018-08-12T23:10:02.264Z,4.47
2018-08-12T23:12:31.860Z,4.17
2018-08-12T23:15:12.372Z,4.33
2018-08-12T23:17:41.896Z,4.40
2018-08-12T23:20:11.599Z,4.60
2018-08-12T23:22:41.148Z,4.87
2018-08-12T23:25:10.820Z,4.83
2018-08-12T23:27:40.344Z,4.57
2018-08-12T23:30:10.107Z,5.07
2018-08-12T23:32:40.362Z,5.20
2018-08-12T23:35:10.238Z,4.60
2018-08-12T23:37:39.834Z,5.03
2018-08-12T23:40:09.403Z,5.30
2018-08-12T23:42:38.939Z,4.80
2018-08-12T23:45:08.491Z,5.07
2018-08-12T23:47:38.058Z,4.90
2018-08-12T23:50:07.624Z,4.60
2018-08-12T23:52:37.167Z,5.00
2018-08-12T23:55:06.709Z,5.03
2018-08-12T23:57:36.268Z,5.03
